Observations for SOUTHAMPTON WX CNTR, United Kingdom (EGHI)

EGHI 191950Z 00000KT 9999 MIFG 06/05 Q1005  
EGHI 191920Z 00000KT CAVOK 07/05 Q1004  
EGHI 191850Z 00000KT CAVOK 08/06 Q1004  
EGHI 191820Z 10001KT 9999 FEW035 08/07 Q1004
EGHI 191750Z VRB01KT 9999 FEW040 09/07 Q1003
EGHI 191720Z 23003KT 9999 FEW040 11/06 Q1003
EGHI 191650Z 25004KT 220V280 9999 FEW040 13/06 Q1003
EGHI 191620Z 26004KT 230V290 9999 FEW040 14/06 Q1002
EGHI 191550Z 25004KT 220V290 9999 FEW040 14/06 Q1002
EGHI 191520Z 28005KT 250V320 9999 SCT035 14/07 Q1002
EGHI 191450Z 24007KT 210V270 9999 SCT033 15/07 Q1002
EGHI 191420Z 24007KT 220V280 9999 SCT036 15/07 Q1002
EGHI 191350Z 25007KT 200V290 9999 SCT036 14/06 Q1001
EGHI 191320Z 24008KT 210V270 9999 SCT033 15/06 Q1001
EGHI 191250Z 23007KT 210V270 9999 BKN033 14/07 Q1001
EGHI 191220Z 24008KT 210V270 9999 BKN035 14/07 Q1001
EGHI 191150Z 24008KT 200V270 9999 SCT035 14/07 Q1001
EGHI 191120Z 23009KT 200V280 9999 SCT032 14/07 Q1001
EGHI 191050Z 23010KT 200V260 9999 SCT028 14/07 Q1001
EGHI 191020Z 25008KT 220V280 9999 FEW024 14/08 Q1001
EGHI 190950Z 24007KT 210V270 9999 FEW024 13/08 Q1000
EGHI 190920Z 24006KT 200V280 CAVOK 13/09 Q1001  
EGHI 190850Z 24006KT 200V280 CAVOK 12/08 Q1000  
EGHI 190820Z 23006KT 210V280 CAVOK 11/09 Q1000  
EGHI 190750Z 22005KT 190V250 CAVOK 10/09 Q1000  
EGHI 190720Z 22004KT CAVOK 10/08 Q1000  
EGHI 190650Z 22004KT CAVOK 09/08 Q0999  
EGHI 190620Z 22005KT 9000 NSC 10/08 Q0999   
EGHI 190550Z 22004KT 9000 NSC 10/09 Q0999   
EGHI 190520Z 21004KT 9000 NSC 10/08 Q0999   
EGHI 190450Z 21005KT 9000 NSC 10/08 Q0999   
EGHI 182120Z 22008KT 9999 VCSH SCT020 12/09 Q1000   
EGHI 182050Z 21008KT 180V250 9999 VCSH SCT025 13/09 Q1000   
EGHI 182020Z 21008KT 170V240 9999 VCSH SCT028 13/09 Q1000 RESHRA
EGHI 181950Z 23010KT 200V260 9999 VCSH SCT028 13/09 Q1000 RESHRA
EGHI 181920Z 21012KT 9999 -SHRA SCT025 13/09 Q1000